Time;durP1;ratioP1;P1;durP2;ratioP2;P2;SDS_P1;SDS_P2;PMS_P1;PMS_P2;Temp;Humidity;BMP_temperature;BMP_pressure;BME280_temperature;BME280_humidity;BME280_pressure;Samples;Min_cycle;Max_cycle;Signal;HPM_P1;HPM_P2
2021/12/13 00:02:27;;;;;;;;;;;;;;;1.93;60.26;100384.25;4381204;32;34819;-56
2021/12/13 00:04:54;;;;;;;;;;;;;;;1.95;60.25;100381.62;4372819;32;34239;-56
2021/12/13 00:07:23;;;;;;;;;;;;;;;1.76;60.82;100375.84;4374913;32;33779;-55
2021/12/13 00:09:51;;;;;;;;;;;;;;;1.94;60.07;100372.97;4346612;32;33285;-56
2021/12/13 00:12:33;;;;;;;;;;;;;;;2.02;59.92;100374.59;4372609;32;34331;-56
2021/12/13 00:15:00;;;;;;;;;;;;;;;2.11;59.59;100366.59;4358545;32;34104;-56
2021/12/13 00:17:29;;;;;;;;;;;;;;;1.74;60.88;100375.87;4372667;32;33498;-56
2021/12/13 00:19:59;;;;;;;;;;;;;;;1.70;60.69;100368.16;4360201;32;34171;-56
2021/12/13 00:22:33;;;;;;;;;;;;;;;2.08;59.68;100377.94;4360762;32;34597;-56
2021/12/13 00:25:11;;;;;;;;;;;;;;;1.67;60.96;100384.69;4374328;32;34680;-56
2021/12/13 00:27:43;;;;;;;;;;;;;;;1.84;60.49;100376.59;4375954;32;33164;-56
2021/12/13 00:30:14;;;;;;;;;;;;;;;1.85;60.01;100374.84;4374149;32;34568;-56
2021/12/13 00:32:43;;;;;;;;;;;;;;;1.79;60.36;100372.34;4374344;32;34827;-56
2021/12/13 00:35:13;;;;;;;;;;;;;;;2.08;59.43;100377.94;4373708;32;34103;-56
2021/12/13 00:37:42;;;;;;;;;;;;;;;1.90;60.17;100381.72;4374388;32;34883;-56
2021/12/13 00:40:11;;;;;;;;;;;;;;;2.02;59.76;100385.00;4373722;32;34783;-55
2021/12/13 00:42:50;;;;;;;;;;;;;;;1.86;59.74;100384.38;4374559;32;34270;-56
2021/12/13 00:45:18;;;;;;;;;;;;;;;2.02;59.67;100385.00;4374558;32;35342;-56
2021/12/13 00:47:45;;;;;;;;;;;;;;;2.16;59.30;100383.84;4374820;32;33704;-56
2021/12/13 00:50:18;;;;;;;;;;;;;;;2.11;59.23;100387.41;4373620;32;34717;-57
2021/12/13 00:52:47;;;;;;;;;;;;;;;2.31;58.65;100394.91;4374456;32;34838;-56
2021/12/13 00:55:16;;;;;;;;;;;;;;;2.25;58.84;100392.38;4374375;32;35155;-56
2021/12/13 00:57:44;;;;;;;;;;;;;;;2.41;58.44;100396.44;4374316;32;34037;-56
2021/12/13 01:00:11;;;;;;;;;;;;;;;2.11;59.21;100382.22;4374077;32;33636;-55
2021/12/13 01:02:45;;;;;;;;;;;;;;;2.28;58.51;100392.34;4373953;32;34571;-55
2021/12/13 01:05:15;;;;;;;;;;;;;;;1.89;59.75;100394.75;4374854;32;34383;-56
2021/12/13 01:08:01;;;;;;;;;;;;;;;1.97;59.66;100385.06;4374269;32;33550;-56
2021/12/13 01:10:38;;;;;;;;;;;;;;;1.76;60.26;100399.28;4360764;32;33689;-56
2021/12/13 01:13:11;;;;;;;;;;;;;;;1.48;61.16;100385.84;4373843;32;35739;-56
2021/12/13 01:15:48;;;;;;;;;;;;;;;1.68;60.63;100391.59;4374043;32;34988;-56
2021/12/13 01:18:27;;;;;;;;;;;;;;;1.55;60.97;100395.25;4374676;32;33847;-56
2021/12/13 01:21:28;;;;;;;;;;;;;;;2.00;59.70;100392.84;4374289;32;33579;-55
2021/12/13 01:23:49;;;;;;;;;;;;;;;1.69;60.39;100389.87;4373022;32;34290;-55
2021/12/13 01:26:37;;;;;;;;;;;;;;;1.87;60.14;100396.53;4374349;32;34513;-56
2021/12/13 01:29:10;;;;;;;;;;;;;;;1.99;59.49;100396.31;4360862;32;34271;-55
2021/12/13 01:31:40;;;;;;;;;;;;;;;1.72;60.36;100395.00;4374309;32;34370;-55
2021/12/13 01:34:08;;;;;;;;;;;;;;;1.95;59.65;100395.50;4374240;32;34444;-56
2021/12/13 01:36:42;;;;;;;;;;;;;;;2.01;59.52;100397.16;4373797;32;33969;-56
2021/12/13 01:39:23;;;;;;;;;;;;;;;1.92;59.78;100405.97;4374377;32;33163;-56
2021/12/13 01:41:52;;;;;;;;;;;;;;;1.93;59.57;100399.87;4373932;32;33686;-56
2021/12/13 01:44:21;;;;;;;;;;;;;;;2.10;59.26;100398.75;4374348;32;34245;-56
2021/12/13 01:46:50;;;;;;;;;;;;;;;2.23;58.65;100405.47;4373677;32;34580;-56
2021/12/13 01:49:19;;;;;;;;;;;;;;;2.23;58.61;100408.06;4374128;32;33416;-55
2021/12/13 01:51:47;;;;;;;;;;;;;;;2.08;59.13;100401.38;4374043;32;34537;-56
2021/12/13 01:54:17;;;;;;;;;;;;;;;2.08;58.92;100403.97;4373826;32;34738;-55
2021/12/13 01:57:09;;;;;;;;;;;;;;;2.11;58.93;100403.94;4374220;32;34331;-55
2021/12/13 02:02:14;;;;;;;;;;;;;;;2.06;59.35;100410.13;4374020;32;33577;-55
2021/12/13 02:04:42;;;;;;;;;;;;;;;2.01;59.24;100410.16;4374052;32;34645;-55
2021/12/13 02:07:10;;;;;;;;;;;;;;;1.85;59.54;100404.34;4360369;32;34132;-56
2021/12/13 02:09:39;;;;;;;;;;;;;;;2.07;58.79;100410.06;4373912;32;33704;-55
2021/12/13 02:12:11;;;;;;;;;;;;;;;2.08;58.91;100397.91;4373641;32;34062;-55
2021/12/13 02:14:41;;;;;;;;;;;;;;;1.80;59.55;100397.50;4374157;32;34645;-55
2021/12/13 02:17:11;;;;;;;;;;;;;;;1.81;59.75;100401.84;4373809;32;34074;-56
2021/12/13 02:19:59;;;;;;;;;;;;;;;1.85;59.61;100411.31;4373266;32;33542;-56
2021/12/13 02:22:30;;;;;;;;;;;;;;;1.70;60.11;100417.59;4374099;32;34384;-56
2021/12/13 02:24:59;;;;;;;;;;;;;;;1.87;59.38;100413.00;4373589;32;34826;-56
2021/12/13 02:27:28;;;;;;;;;;;;;;;2.12;58.57;100416.06;4373825;32;34477;-55
2021/12/13 02:29:56;;;;;;;;;;;;;;;1.85;59.40;100419.13;4373449;32;34059;-56
2021/12/13 02:32:28;;;;;;;;;;;;;;;1.86;59.16;100411.28;4373939;32;34486;-55
2021/12/13 02:34:57;;;;;;;;;;;;;;;1.92;59.41;100420.72;4373590;32;35493;-55
2021/12/13 02:37:25;;;;;;;;;;;;;;;1.82;59.61;100425.22;4373134;32;35061;-55
2021/12/13 02:39:56;;;;;;;;;;;;;;;2.13;58.71;100415.19;4373692;32;33808;-56
2021/12/13 02:42:24;;;;;;;;;;;;;;;1.87;59.38;100413.00;4373461;32;34867;-56
2021/12/13 02:44:52;;;;;;;;;;;;;;;1.69;60.02;100424.56;4373816;32;35881;-55
2021/12/13 02:47:34;;;;;;;;;;;;;;;1.57;60.39;100424.72;4373448;32;34938;-55
2021/12/13 02:50:02;;;;;;;;;;;;;;;1.64;60.03;100425.53;4373569;32;33378;-56
2021/12/13 02:52:30;;;;;;;;;;;;;;;1.64;60.05;100428.13;4373819;32;34962;-55
2021/12/13 02:54:58;;;;;;;;;;;;;;;2.08;58.75;100424.81;4373377;32;34251;-55
2021/12/13 02:57:28;;;;;;;;;;;;;;;1.95;59.04;100418.94;4373841;32;35102;-56
2021/12/13 02:59:57;;;;;;;;;;;;;;;1.77;59.79;100430.50;4373680;32;34699;-55
2021/12/13 03:02:30;;;;;;;;;;;;;;;1.80;59.54;100429.59;4372973;32;34376;-56
2021/12/13 03:04:58;;;;;;;;;;;;;;;1.82;59.49;100425.22;4373541;32;34287;-56
2021/12/13 03:07:31;;;;;;;;;;;;;;;2.04;58.90;100417.94;4373458;32;34750;-56
2021/12/13 03:09:58;;;;;;;;;;;;;;;2.11;58.25;100409.16;4373707;32;33169;-56
2021/12/13 03:12:26;;;;;;;;;;;;;;;1.80;59.39;100420.94;4372897;32;33535;-56
2021/12/13 03:14:57;;;;;;;;;;;;;;;1.75;59.60;100416.66;4373306;32;34504;-56
2021/12/13 03:17:30;;;;;;;;;;;;;;;1.87;59.45;100415.59;4373329;32;34430;-55
2021/12/13 03:20:03;;;;;;;;;;;;;;;1.88;59.56;100411.25;4373669;32;33219;-55
2021/12/13 03:22:46;;;;;;;;;;;;;;;2.12;58.91;100405.63;4373142;32;35006;-55
2021/12/13 03:25:32;;;;;;;;;;;;;;;2.09;58.86;100407.44;4372788;32;35027;-56
2021/12/13 03:28:21;;;;;;;;;;;;;;;1.95;59.39;100418.09;4373520;32;34656;-56
2021/12/13 03:30:50;;;;;;;;;;;;;;;1.74;59.90;100407.13;4359968;32;33325;-56
2021/12/13 03:33:20;;;;;;;;;;;;;;;1.68;60.34;100409.81;4359306;32;33866;-56
2021/12/13 03:35:52;;;;;;;;;;;;;;;1.85;59.98;100412.16;4358543;32;35654;-55
2021/12/13 03:38:21;;;;;;;;;;;;;;;2.02;59.77;100414.50;4358065;32;34435;-55
2021/12/13 03:40:49;;;;;;;;;;;;;;;1.89;60.06;100410.37;4361133;32;33449;-55
2021/12/13 03:43:19;;;;;;;;;;;;;;;2.19;58.44;100410.75;4373207;32;33545;-56
2021/12/13 03:45:49;;;;;;;;;;;;;;;2.00;59.50;100423.22;4373135;32;34498;-56
2021/12/13 03:48:17;;;;;;;;;;;;;;;2.07;59.18;100425.69;4373071;32;33928;-55
2021/12/13 03:50:46;;;;;;;;;;;;;;;2.04;59.50;100425.75;4372965;32;33426;-56
2021/12/13 03:53:21;;;;;;;;;;;;;;;2.19;58.59;100418.56;4374261;32;35008;-55
2021/12/13 03:55:49;;;;;;;;;;;;;;;1.95;59.71;100418.09;4360343;32;34335;-55
2021/12/13 03:58:18;;;;;;;;;;;;;;;1.94;59.91;100427.66;4374914;32;35211;-55
2021/12/13 04:00:48;;;;;;;;;;;;;;;2.03;60.44;100431.84;4374758;32;34073;-55
2021/12/13 04:03:16;;;;;;;;;;;;;;;2.01;60.31;100425.78;4374649;32;34345;-55
2021/12/13 04:05:44;;;;;;;;;;;;;;;2.08;59.73;100432.63;4374447;32;35343;-55
2021/12/13 04:08:12;;;;;;;;;;;;;;;2.17;59.40;100427.28;4374459;32;35236;-56
2021/12/13 04:10:41;;;;;;;;;;;;;;;1.95;60.55;100436.31;4375093;32;33361;-55
2021/12/13 04:13:12;;;;;;;;;;;;;;;1.99;60.64;100429.31;4374548;32;35006;-56
2021/12/13 04:16:06;;;;;;;;;;;;;;;2.15;59.93;100446.41;4373962;32;34735;-56
2021/12/13 04:21:21;;;;;;;;;;;;;;;1.88;60.51;100439.91;4374432;32;33535;-57
2021/12/13 04:23:52;;;;;;;;;;;;;;;2.03;60.28;100444.00;4374676;32;34276;-55
2021/12/13 04:26:20;;;;;;;;;;;;;;;1.90;61.26;100444.22;4374071;32;35225;-56
2021/12/13 04:28:48;;;;;;;;;;;;;;;2.09;60.44;100442.16;4374482;32;34872;-56
2021/12/13 04:31:18;;;;;;;;;;;;;;;2.08;60.63;100440.44;4374708;32;34132;-55
2021/12/13 04:33:47;;;;;;;;;;;;;;;2.21;60.44;100438.50;4374139;32;33883;-56
2021/12/13 04:36:16;;;;;;;;;;;;;;;2.24;60.15;100442.81;4374436;32;34207;-56
2021/12/13 04:38:49;;;;;;;;;;;;;;;2.34;59.93;100450.41;4374224;32;34758;-56
2021/12/13 04:41:20;;;;;;;;;;;;;;;2.16;60.46;100446.38;4374968;32;33297;-55
2021/12/13 04:43:47;;;;;;;;;;;;;;;1.95;60.69;100441.53;4374505;32;34481;-56
2021/12/13 04:46:14;;;;;;;;;;;;;;;2.24;60.47;100440.19;4374388;32;35292;-56
2021/12/13 04:48:42;;;;;;;;;;;;;;;2.15;60.18;100444.69;4374042;32;34364;-56
2021/12/13 04:51:12;;;;;;;;;;;;;;;2.19;60.47;100442.91;4360429;32;34402;-56
2021/12/13 04:53:46;;;;;;;;;;;;;;;2.01;61.09;100451.84;4361029;32;33554;-56
2021/12/13 04:56:16;;;;;;;;;;;;;;;1.87;61.69;100446.00;4373877;32;35580;-56
2021/12/13 04:58:44;;;;;;;;;;;;;;;1.99;61.55;100444.94;4360655;32;35374;-55
2021/12/13 05:01:13;;;;;;;;;;;;;;;2.09;60.97;100452.56;4373816;32;33604;-56
2021/12/13 05:03:42;;;;;;;;;;;;;;;2.03;61.12;100457.03;4373983;32;34039;-55
2021/12/13 05:06:13;;;;;;;;;;;;;;;2.12;61.25;100455.16;4374347;32;34634;-55
2021/12/13 05:08:41;;;;;;;;;;;;;;;2.25;60.89;100458.41;4374240;32;35069;-56
2021/12/13 05:11:09;;;;;;;;;;;;;;;2.20;60.88;100456.78;4374600;32;33216;-55
2021/12/13 05:13:37;;;;;;;;;;;;;;;2.05;61.47;100463.09;4373876;32;34316;-55
2021/12/13 05:16:10;;;;;;;;;;;;;;;2.10;60.89;100461.28;4374157;32;34093;-56
2021/12/13 05:18:40;;;;;;;;;;;;;;;2.17;61.08;100463.75;4374417;32;33989;-56
2021/12/13 05:21:09;;;;;;;;;;;;;;;1.84;62.25;100466.88;4373336;32;33538;-56
2021/12/13 05:23:54;;;;;;;;;;;;;;;1.84;62.39;100464.28;4374701;32;34263;-56
2021/12/13 05:26:34;;;;;;;;;;;;;;;1.87;62.35;100472.06;4374039;32;36168;-55
2021/12/13 05:29:02;;;;;;;;;;;;;;;1.55;63.30;100481.16;4374212;32;34630;-55
2021/12/13 05:31:29;;;;;;;;;;;;;;;1.72;63.08;100484.41;4373573;32;33275;-55
2021/12/13 05:34:01;;;;;;;;;;;;;;;1.67;63.26;100488.81;4373659;32;34094;-55
2021/12/13 05:36:35;;;;;;;;;;;;;;;1.51;64.03;100482.97;4374568;32;34904;-56
2021/12/13 05:39:07;;;;;;;;;;;;;;;1.45;64.19;100495.19;4373329;32;33195;-55
2021/12/13 05:41:35;;;;;;;;;;;;;;;1.50;64.05;100491.66;4374500;32;33201;-56
2021/12/13 05:44:04;;;;;;;;;;;;;;;1.51;64.04;100482.97;4374008;32;34588;-56
2021/12/13 05:46:33;;;;;;;;;;;;;;;1.67;63.67;100494.03;4373898;32;34825;-55
2021/12/13 05:49:01;;;;;;;;;;;;;;;1.51;64.45;100493.38;4359658;32;34472;-55
2021/12/13 05:51:38;;;;;;;;;;;;;;;1.35;65.13;100490.09;4372966;32;33466;-55
2021/12/13 05:54:21;;;;;;;;;;;;;;;1.41;65.32;100501.31;4376314;32;34132;-56
2021/12/13 05:56:49;;;;;;;;;;;;;;;1.54;64.95;100498.53;4373841;32;36371;-56
2021/12/13 05:59:22;;;;;;;;;;;;;;;1.55;64.96;100494.19;4374051;32;33729;-56
2021/12/13 06:01:52;;;;;;;;;;;;;;;1.61;64.81;100486.31;4374291;32;33165;-55
2021/12/13 06:04:42;;;;;;;;;;;;;;;1.55;65.31;100494.19;4373743;32;33778;-55
2021/12/13 06:07:29;;;;;;;;;;;;;;;1.70;64.81;100501.78;4368055;32;34665;-56
2021/12/13 06:09:58;;;;;;;;;;;;;;;1.69;64.85;100501.81;4373723;32;33974;-56
2021/12/13 06:12:32;;;;;;;;;;;;;;;1.69;64.82;100502.69;4373145;32;33439;-55
2021/12/13 06:15:05;;;;;;;;;;;;;;;1.52;65.49;100505.50;4382697;32;34530;-56
2021/12/13 06:17:33;;;;;;;;;;;;;;;1.74;64.76;100506.06;4359409;32;35188;-56
2021/12/13 06:20:04;;;;;;;;;;;;;;;1.91;64.18;100510.19;4367590;32;33256;-56
2021/12/13 06:22:31;;;;;;;;;;;;;;;1.93;64.09;100511.87;4373226;32;34058;-56
2021/12/13 06:25:19;;;;;;;;;;;;;;;1.77;64.59;100521.66;4373564;32;34899;-56
2021/12/13 06:27:51;;;;;;;;;;;;;;;1.82;64.73;100515.50;4373695;32;34763;-56
2021/12/13 06:30:19;;;;;;;;;;;;;;;1.75;65.22;100520.81;4373523;32;34632;-55
2021/12/13 06:32:53;;;;;;;;;;;;;;;1.84;64.78;100514.63;4373984;32;34408;-56
2021/12/13 06:35:28;;;;;;;;;;;;;;;1.97;64.39;100520.50;4373426;32;34885;-56
2021/12/13 06:37:57;;;;;;;;;;;;;;;1.84;64.98;100519.84;4359934;32;35210;-56
2021/12/13 06:40:29;;;;;;;;;;;;;;;2.00;64.35;100528.28;4373380;32;33996;-56
2021/12/13 06:43:00;;;;;;;;;;;;;;;1.87;64.96;100535.41;4373635;32;34414;-56
2021/12/13 06:45:34;;;;;;;;;;;;;;;2.01;64.72;100535.22;4374024;32;34345;-53
2021/12/13 06:48:03;;;;;;;;;;;;;;;1.89;65.25;100538.00;4373444;32;34682;-53
2021/12/13 06:50:35;;;;;;;;;;;;;;;2.09;64.44;100535.09;4373406;32;34380;-53
2021/12/13 06:53:28;;;;;;;;;;;;;;;2.06;64.43;100533.41;4373346;32;34410;-53
2021/12/13 06:55:56;;;;;;;;;;;;;;;2.12;64.64;100538.53;4370899;32;33558;-54
2021/12/13 06:58:27;;;;;;;;;;;;;;;2.11;64.38;100539.41;4371680;32;35224;-53
2021/12/13 07:00:57;;;;;;;;;;;;;;;2.07;64.92;100545.53;4373131;32;34365;-53
2021/12/13 07:03:33;;;;;;;;;;;;;;;2.10;66.31;100539.44;4372676;32;33131;-53
2021/12/13 07:06:02;;;;;;;;;;;;;;;2.10;65.21;100539.44;4373460;32;33653;-53
2021/12/13 07:08:34;;;;;;;;;;;;;;;2.22;64.78;100536.63;4372802;32;35666;-53
2021/12/13 07:11:01;;;;;;;;;;;;;;;2.25;64.57;100533.09;4372784;32;33711;-53
2021/12/13 07:13:35;;;;;;;;;;;;;;;2.23;64.62;100534.88;4373276;32;33594;-53
2021/12/13 07:16:07;;;;;;;;;;;;;;;2.25;64.49;100533.09;4373956;32;34848;-53
2021/12/13 07:18:40;;;;;;;;;;;;;;;2.19;64.67;100547.12;4372953;32;34883;-53
2021/12/13 07:21:09;;;;;;;;;;;;;;;2.26;64.72;100551.34;4373457;32;35207;-53
2021/12/13 07:23:55;;;;;;;;;;;;;;;2.26;65.01;100551.34;4373422;32;33317;-53
2021/12/13 07:26:38;;;;;;;;;;;;;;;2.69;63.50;100545.41;4373159;32;33574;-53
2021/12/13 07:29:07;;;;;;;;;;;;;;;2.72;63.25;100547.12;4373191;32;34694;-52
2021/12/13 07:31:34;;;;;;;;;;;;;;;2.54;63.99;100541.34;4373142;32;34381;-54
2021/12/13 07:34:06;;;;;;;;;;;;;;;2.83;63.11;100540.00;4373275;32;34516;-56
2021/12/13 07:36:33;;;;;;;;;;;;;;;2.53;63.99;100544.81;4373151;32;33827;-53
2021/12/13 07:39:02;;;;;;;;;;;;;;;2.40;64.93;100553.72;4372619;32;34224;-53
2021/12/13 07:41:47;;;;;;;;;;;;;;;2.54;64.69;100546.56;4359832;32;34855;-53
2021/12/13 07:44:25;;;;;;;;;;;;;;;2.70;64.17;100554.12;4373001;32;33457;-53
2021/12/13 07:47:06;;;;;;;;;;;;;;;2.50;65.05;100554.44;4373084;32;34337;-53
2021/12/13 07:49:35;;;;;;;;;;;;;;;2.58;64.98;100555.19;4372628;32;36367;-54
2021/12/13 07:52:03;;;;;;;;;;;;;;;2.64;64.80;100559.44;4373222;32;35427;-53
2021/12/13 07:54:38;;;;;;;;;;;;;;;2.84;64.18;100569.53;4373413;32;34426;-53
2021/12/13 07:57:14;;;;;;;;;;;;;;;2.89;64.47;100563.34;4372529;32;33726;-53
2021/12/13 07:59:41;;;;;;;;;;;;;;;2.80;64.46;100567.88;4372855;32;34745;-54
2021/12/13 08:02:11;;;;;;;;;;;;;;;2.73;65.09;100569.69;4372958;32;34018;-53
2021/12/13 08:04:47;;;;;;;;;;;;;;;2.76;64.91;100569.66;4359247;32;33763;-53
2021/12/13 08:07:16;;;;;;;;;;;;;;;2.97;64.36;100565.81;4372850;32;33759;-54
2021/12/13 08:10:02;;;;;;;;;;;;;;;3.20;63.76;100562.78;4372158;32;34357;-53
2021/12/13 08:12:31;;;;;;;;;;;;;;;3.08;64.00;100568.22;4372987;32;34468;-54
2021/12/13 08:15:18;;;;;;;;;;;;;;;2.98;64.67;100571.91;4359030;32;33251;-53
2021/12/13 08:17:48;;;;;;;;;;;;;;;2.94;64.78;100571.94;4372764;32;34649;-53
2021/12/13 08:20:23;;;;;;;;;;;;;;;3.11;64.29;100581.22;4372241;32;34957;-54
2021/12/13 08:22:50;;;;;;;;;;;;;;;3.02;64.71;100582.22;4372388;32;34590;-54
2021/12/13 08:25:20;;;;;;;;;;;;;;;3.31;63.88;100589.53;4372889;32;33117;-54
2021/12/13 08:27:53;;;;;;;;;;;;;;;3.13;64.42;100584.66;4372405;32;34260;-53
2021/12/13 08:30:22;;;;;;;;;;;;;;;3.25;63.94;100584.44;4372031;32;34906;-53
2021/12/13 08:32:55;;;;;;;;;;;;;;;3.46;63.35;100588.38;4376974;32;34404;-54
2021/12/13 08:35:28;;;;;;;;;;;;;;;3.70;62.54;100592.28;4386263;32;34385;-54
2021/12/13 08:37:56;;;;;;;;;;;;;;;3.66;62.88;100592.34;4373914;32;34135;-54
2021/12/13 08:40:30;;;;;;;;;;;;;;;3.67;62.64;100594.06;4373757;32;34357;-53
2021/12/13 08:42:58;;;;;;;;;;;;;;;3.54;63.24;100594.31;4386680;32;34643;-54
2021/12/13 08:45:34;;;;;;;;;;;;;;;3.50;63.21;100595.25;4389165;32;33751;-54
2021/12/13 08:48:08;;;;;;;;;;;;;;;3.61;63.08;100599.44;4389517;32;33645;-54
2021/12/13 08:50:43;;;;;;;;;;;;;;;3.67;62.77;100602.75;4376397;32;35616;-54
2021/12/13 08:53:13;;;;;;;;;;;;;;;3.93;62.13;100599.59;4375684;32;34288;-54
2021/12/13 08:55:44;;;;;;;;;;;;;;;4.04;61.61;100608.97;4382161;32;33470;-54
2021/12/13 08:58:17;;;;;;;;;;;;;;;4.18;61.24;100600.84;4374332;32;34855;-54
2021/12/13 09:00:44;;;;;;;;;;;;;;;4.13;61.27;100603.56;4373381;32;34369;-54
2021/12/13 09:03:14;;;;;;;;;;;;;;;4.09;61.26;100607.09;4372298;32;34017;-54
2021/12/13 09:05:52;;;;;;;;;;;;;;;4.21;61.29;100606.00;4373959;32;34358;-54
2021/12/13 09:08:25;;;;;;;;;;;;;;;4.38;60.23;100603.88;4383934;32;33561;-54
2021/12/13 09:11:03;;;;;;;;;;;;;;;4.29;60.59;100601.47;4380857;32;34723;-54
2021/12/13 09:13:36;;;;;;;;;;;;;;;4.26;61.12;100606.75;4373976;32;33973;-54
2021/12/13 09:16:03;;;;;;;;;;;;;;;4.28;60.62;100597.97;4387483;32;33893;-54
2021/12/13 09:18:31;;;;;;;;;;;;;;;4.29;60.66;100609.28;4377219;32;33549;-54
2021/12/13 09:20:59;;;;;;;;;;;;;;;4.69;59.52;100600.50;4376298;32;34868;-54
2021/12/13 09:23:28;;;;;;;;;;;;;;;4.49;59.50;100604.44;4372965;32;35378;-53
2021/12/13 09:26:05;;;;;;;;;;;;;;;4.42;60.00;100600.28;4371071;32;33845;-53
2021/12/13 09:28:34;;;;;;;;;;;;;;;5.08;67.84;100596.03;4374026;32;33820;-54
2021/12/13 09:31:03;;;;;;;;;;;;;;;4.75;59.09;100605.59;4388601;32;34300;-54
2021/12/13 09:33:31;;;;;;;;;;;;;;;4.86;58.40;100590.47;4381883;32;34066;-54
2021/12/13 09:36:09;;;;;;;;;;;;;;;4.96;58.33;100595.47;4373461;32;32999;-54
2021/12/13 09:38:43;;;;;;;;;;;;;;;5.08;58.00;100596.03;4373445;32;33759;-54
2021/12/13 09:41:13;;;;;;;;;;;;;;;4.90;57.76;100588.63;4372929;32;35640;-54
2021/12/13 09:43:55;;;;;;;;;;;;;;;4.97;57.99;100591.97;4373731;32;33935;-54
2021/12/13 09:46:35;;;;;;;;;;;;;;;5.04;57.79;100585.66;4374097;32;33116;-54
2021/12/13 09:49:04;;;;;;;;;;;;;;;4.93;58.01;100588.56;4385028;32;33838;-54
2021/12/13 09:51:52;;;;;;;;;;;;;;;4.71;58.68;100586.50;4373016;32;34081;-54
2021/12/13 09:54:20;;;;;;;;;;;;;;;4.72;59.03;100587.34;4373829;32;35124;-54
2021/12/13 09:56:49;;;;;;;;;;;;;;;4.72;59.03;100575.13;4382009;32;32977;-55
2021/12/13 09:59:28;;;;;;;;;;;;;;;4.87;58.81;100575.66;4388548;32;33779;-54
2021/12/13 10:01:56;;;;;;;;;;;;;;;5.03;58.24;100574.34;4358539;32;34465;-54
2021/12/13 10:04:26;;;;;;;;;;;;;;;5.11;58.36;100571.53;4345614;32;33433;-54
2021/12/13 10:06:55;;;;;;;;;;;;;;;5.26;58.10;100567.62;4358534;32;33217;-54
2021/12/13 10:09:27;;;;;;;;;;;;;;;5.11;58.16;100568.91;4358708;32;34844;-54
2021/12/13 10:12:01;;;;;;;;;;;;;;;5.43;56.98;100568.03;4345240;32;34267;-54
2021/12/13 10:14:30;;;;;;;;;;;;;;;5.04;58.41;100572.56;4358716;32;34223;-54
2021/12/13 10:16:58;;;;;;;;;;;;;;;5.08;58.09;100569.00;4358982;32;34065;-54
2021/12/13 10:19:29;;;;;;;;;;;;;;;5.16;57.52;100572.28;4358361;32;34176;-54
2021/12/13 10:21:57;;;;;;;;;;;;;;;4.96;58.79;100564.06;4358772;32;34421;-54
2021/12/13 10:24:29;;;;;;;;;;;;;;;5.33;57.69;100570.03;4359514;32;34789;-54
2021/12/13 10:26:57;;;;;;;;;;;;;;;5.27;57.80;100559.75;4372612;32;32554;-54
2021/12/13 10:29:44;;;;;;;;;;;;;;;5.09;58.25;100570.69;4375805;32;34030;-54
2021/12/13 10:32:15;;;;;;;;;;;;;;;5.18;57.68;100565.22;4388162;32;35675;-54
2021/12/13 10:34:46;;;;;;;;;;;;;;;5.23;57.89;100558.09;4377861;32;34400;-54
2021/12/13 10:37:22;;;;;;;;;;;;;;;5.36;58.78;100565.63;4367378;32;33376;-54
2021/12/13 10:39:51;;;;;;;;;;;;;;;5.30;57.96;100564.88;4387932;32;34846;-54
2021/12/13 10:42:21;;;;;;;;;;;;;;;5.09;58.22;100565.47;4388409;32;35065;-53
2021/12/13 10:44:48;;;;;;;;;;;;;;;5.14;57.65;100558.34;4364668;32;33239;-54
2021/12/13 10:47:36;;;;;;;;;;;;;;;5.11;57.57;100554.03;4377511;32;33754;-54
2021/12/13 10:50:05;;;;;;;;;;;;;;;5.34;57.34;100557.81;4373177;32;34472;-54
2021/12/13 10:52:34;;;;;;;;;;;;;;;5.36;56.73;100556.00;4373684;32;34109;-53
2021/12/13 10:55:06;;;;;;;;;;;;;;;5.51;55.91;100552.94;4372807;32;34054;-54
2021/12/13 10:57:35;;;;;;;;;;;;;;;5.23;56.59;100547.62;4377861;32;33756;-54
2021/12/13 11:00:06;;;;;;;;;;;;;;;5.42;56.21;100552.34;4373846;32;34346;-54
2021/12/13 11:02:34;;;;;;;;;;;;;;;5.45;55.77;100554.91;4372014;32;34066;-53
2021/12/13 11:05:05;;;;;;;;;;;;;;;5.49;55.40;100551.28;4373415;32;35130;-54
2021/12/13 11:07:32;;;;;;;;;;;;;;;5.45;55.56;100550.50;4373251;32;33191;-54
2021/12/13 11:10:00;;;;;;;;;;;;;;;5.38;55.19;100548.09;4372652;32;33940;-54
2021/12/13 11:12:29;;;;;;;;;;;;;;;5.66;54.98;100546.41;4359760;32;34701;-54
2021/12/13 11:14:58;;;;;;;;;;;;;;;5.73;55.06;100552.31;4371684;32;33777;-54
2021/12/13 11:17:27;;;;;;;;;;;;;;;5.80;55.11;100547.78;4385460;32;33555;-53
2021/12/13 11:19:56;;;;;;;;;;;;;;;5.72;55.42;100550.62;4387577;32;33757;-54
2021/12/13 11:22:25;;;;;;;;;;;;;;;5.87;55.40;100551.91;4388523;32;34715;-54
2021/12/13 11:25:13;;;;;;;;;;;;;;;5.75;56.28;100549.66;4387955;32;34659;-54
2021/12/13 11:27:40;;;;;;;;;;;;;;;5.94;55.62;100550.81;4388263;32;34515;-55
2021/12/13 11:30:13;;;;;;;;;;;;;;;5.84;55.63;100554.63;4388126;32;34101;-54
2021/12/13 11:33:03;;;;;;;;;;;;;;;5.90;55.80;100557.06;4386436;32;34404;-54
2021/12/13 11:35:32;;;;;;;;;;;;;;;5.60;56.87;100545.72;4360605;32;34491;-54
2021/12/13 11:37:59;;;;;;;;;;;;;;;5.70;57.23;100552.44;4377054;32;33875;-54
2021/12/13 11:40:37;;;;;;;;;;;;;;;5.79;56.36;100548.66;4372635;32;34302;-54
2021/12/13 11:43:23;;;;;;;;;;;;;;;5.67;57.42;100547.28;4361893;32;34750;-54
2021/12/13 11:46:07;;;;;;;;;;;;;;;5.52;57.79;100545.94;4380590;32;34527;-54
2021/12/13 11:48:53;;;;;;;;;;;;;;;5.68;57.61;100544.59;4383682;32;33421;-54
2021/12/13 11:51:29;;;;;;;;;;;;;;;5.49;57.85;100546.03;4387723;32;34193;-54
2021/12/13 11:54:03;;;;;;;;;;;;;;;5.59;57.66;100547.50;4387297;32;34548;-54
2021/12/13 11:56:41;;;;;;;;;;;;;;;5.61;57.37;100542.22;4381513;32;34592;-54
2021/12/13 11:59:12;;;;;;;;;;;;;;;5.70;57.18;100544.56;4373701;32;33568;-54
2021/12/13 12:01:45;;;;;;;;;;;;;;;5.73;56.89;100536.59;4387483;32;35108;-54
2021/12/13 12:04:32;;;;;;;;;;;;;;;5.70;57.32;100537.56;4374221;32;35625;-54
2021/12/13 12:07:18;;;;;;;;;;;;;;;5.65;57.67;100535.97;4380985;32;33679;-55
2021/12/13 12:10:04;;;;;;;;;;;;;;;5.59;57.97;100533.53;4371716;32;33998;-55
2021/12/13 12:12:31;;;;;;;;;;;;;;;5.62;57.54;100531.69;4379745;32;33703;-54
2021/12/13 12:15:01;;;;;;;;;;;;;;;5.83;57.40;100530.16;4376070;32;35192;-54
2021/12/13 12:17:29;;;;;;;;;;;;;;;5.83;56.17;100537.19;4388789;32;34204;-54
2021/12/13 12:19:56;;;;;;;;;;;;;;;5.84;56.25;100538.91;4388331;32;33688;-54
2021/12/13 12:22:27;;;;;;;;;;;;;;;5.85;56.45;100541.47;4389349;32;34362;-55
2021/12/13 12:24:58;;;;;;;;;;;;;;;5.99;55.89;100542.84;4377176;32;34214;-54
2021/12/13 12:27:27;;;;;;;;;;;;;;;6.08;55.37;100537.31;4377579;32;34911;-54
2021/12/13 12:29:55;;;;;;;;;;;;;;;6.17;55.14;100542.28;4375018;32;34165;-54
2021/12/13 12:32:26;;;;;;;;;;;;;;;6.09;54.93;100539.91;4388566;32;33957;-55
2021/12/13 12:35:00;;;;;;;;;;;;;;;6.46;54.29;100540.50;4388856;32;34775;-54
2021/12/13 12:37:27;;;;;;;;;;;;;;;6.30;54.55;100541.00;4388541;32;34545;-55
2021/12/13 12:40:07;;;;;;;;;;;;;;;6.04;55.04;100540.94;4388708;32;33229;-54
2021/12/13 12:42:35;;;;;;;;;;;;;;;6.11;55.17;100532.00;4381751;32;34929;-54
2021/12/13 12:45:09;;;;;;;;;;;;;;;6.27;55.29;100540.22;4359686;32;35359;-54
2021/12/13 12:47:36;;;;;;;;;;;;;;;6.24;55.47;100532.44;4373431;32;34461;-54
2021/12/13 12:50:13;;;;;;;;;;;;;;;6.19;55.59;100535.22;4373229;32;33332;-54
2021/12/13 12:52:50;;;;;;;;;;;;;;;6.20;55.51;100534.31;4373534;32;33591;-54
2021/12/13 12:55:19;;;;;;;;;;;;;;;6.24;55.15;100530.72;4373379;32;35165;-55
2021/12/13 12:57:46;;;;;;;;;;;;;;;6.19;55.37;100529.97;4387724;32;33836;-54
2021/12/13 13:00:13;;;;;;;;;;;;;;;6.44;54.85;100523.97;4387910;32;33625;-55
2021/12/13 13:02:50;;;;;;;;;;;;;;;6.19;55.70;100532.59;4388243;32;35020;-54
2021/12/13 13:05:18;;;;;;;;;;;;;;;6.25;55.37;100523.69;4362875;32;34405;-54
2021/12/13 13:07:46;;;;;;;;;;;;;;;6.20;55.57;100531.69;4372756;32;34095;-55
2021/12/13 13:13:19;;;;;;;;;;;;;;;6.34;55.44;100538.25;4373409;32;33738;-54
2021/12/13 13:15:48;;;;;;;;;;;;;;;6.09;56.16;100544.28;4368534;32;93981;-54
2021/12/13 13:18:20;;;;;;;;;;;;;;;5.99;56.41;100553.31;4374312;32;34703;-55
2021/12/13 13:20:51;;;;;;;;;;;;;;;6.09;56.11;100550.41;4373858;32;33746;-54
2021/12/13 13:23:19;;;;;;;;;;;;;;;5.95;56.29;100562.16;4373714;32;35133;-54